createdAt,value
2022-10-15T00:01:07.428Z,13.88
2022-10-15T00:02:09.577Z,13.88
2022-10-15T00:03:12.850Z,13.89
2022-10-15T00:04:14.929Z,13.88
2022-10-15T00:05:18.008Z,13.88
2022-10-15T00:06:21.550Z,13.90
2022-10-15T00:07:24.961Z,13.88
2022-10-15T00:08:27.228Z,13.90
2022-10-15T00:09:31.682Z,13.90
2022-10-15T00:10:34.718Z,13.90
2022-10-15T00:11:37.819Z,13.90
2022-10-15T00:12:40.802Z,13.90
2022-10-15T00:13:45.022Z,13.90
2022-10-15T00:14:47.251Z,13.90
2022-10-15T00:15:50.331Z,13.91
2022-10-15T00:16:52.385Z,13.91
2022-10-15T00:17:55.485Z,13.90
2022-10-15T00:18:59.135Z,13.91
2022-10-15T00:20:02.416Z,13.92
2022-10-15T00:21:07.757Z,13.93
2022-10-15T00:22:10.817Z,13.92
2022-10-15T00:23:12.860Z,13.92
2022-10-15T00:24:16.046Z,13.94
2022-10-15T00:25:19.686Z,13.87
2022-10-15T00:26:24.714Z,13.88
2022-10-15T00:27:26.826Z,13.93
2022-10-15T00:28:33.394Z,13.94
2022-10-15T00:29:37.520Z,13.94
2022-10-15T00:30:39.656Z,13.94
2022-10-15T00:31:42.916Z,13.93
2022-10-15T00:32:45.000Z,13.94
2022-10-15T00:33:50.159Z,13.94
2022-10-15T00:34:52.303Z,13.94
2022-10-15T00:36:00.565Z,13.88
2022-10-15T00:37:04.502Z,13.96
2022-10-15T00:38:07.534Z,13.95
2022-10-15T00:39:10.818Z,13.97
2022-10-15T00:40:15.632Z,13.97
2022-10-15T00:41:22.224Z,13.97
2022-10-15T00:42:25.734Z,13.97
2022-10-15T00:43:42.898Z,13.97
2022-10-15T00:44:55.474Z,13.98
2022-10-15T00:45:57.629Z,13.98
2022-10-15T00:47:05.349Z,13.98
2022-10-15T00:48:09.480Z,13.93
2022-10-15T00:49:18.062Z,13.99
2022-10-15T00:50:24.758Z,13.99
2022-10-15T00:51:32.217Z,13.99
2022-10-15T00:52:43.504Z,14.00
2022-10-15T00:53:46.434Z,14.00
2022-10-15T00:54:54.043Z,13.99
2022-10-15T00:55:56.841Z,14.00
2022-10-15T00:57:02.019Z,13.99
2022-10-15T00:58:07.102Z,13.99
2022-10-15T00:59:12.816Z,13.99
2022-10-15T01:00:16.637Z,13.93
2022-10-15T01:01:19.824Z,14.00
2022-10-15T01:02:22.380Z,14.00
2022-10-15T01:03:26.491Z,13.99
2022-10-15T01:04:30.675Z,13.99
2022-10-15T01:05:35.833Z,13.99
2022-10-15T01:06:39.253Z,13.99
2022-10-15T01:07:42.325Z,13.99
2022-10-15T01:08:45.129Z,13.99
2022-10-15T01:09:48.634Z,14.00
2022-10-15T01:11:07.203Z,13.99
2022-10-15T01:12:20.120Z,13.99
2022-10-15T01:13:29.224Z,13.98
2022-10-15T01:14:39.797Z,13.99
2022-10-15T01:15:48.883Z,13.99
2022-10-15T01:16:56.054Z,13.99
2022-10-15T01:18:04.675Z,13.99
2022-10-15T01:19:24.750Z,13.99
2022-10-15T01:20:49.066Z,13.95
2022-10-15T01:21:58.509Z,13.99
2022-10-15T01:23:22.411Z,13.99
2022-10-15T01:24:46.875Z,13.98
2022-10-15T01:25:56.269Z,13.99
2022-10-15T01:27:16.115Z,13.98
2022-10-15T01:28:38.469Z,13.98
2022-10-15T01:30:20.969Z,13.97
2022-10-15T01:31:38.819Z,13.98
2022-10-15T01:32:48.145Z,13.96
2022-10-15T01:33:58.157Z,13.97
2022-10-15T01:35:09.792Z,13.96
2022-10-15T01:36:20.051Z,13.95
2022-10-15T01:37:26.768Z,13.95
2022-10-15T01:38:40.327Z,13.94
2022-10-15T01:39:47.137Z,13.95
2022-10-15T01:40:55.254Z,13.93
2022-10-15T01:42:03.150Z,13.94
2022-10-15T01:43:12.024Z,13.94
2022-10-15T01:44:48.607Z,13.92
2022-10-15T01:46:17.448Z,13.90
2022-10-15T01:47:42.517Z,13.89
2022-10-15T01:48:45.431Z,13.88
2022-10-15T01:49:50.868Z,13.89
2022-10-15T01:50:57.873Z,13.86
2022-10-15T01:52:06.041Z,13.86
2022-10-15T01:53:09.153Z,13.85
2022-10-15T01:54:18.622Z,13.85
2022-10-15T01:55:22.750Z,13.84
2022-10-15T01:56:29.406Z,13.84
2022-10-15T01:57:33.377Z,13.84
2022-10-15T01:58:39.584Z,13.84
2022-10-15T01:59:43.721Z,13.79
2022-10-15T02:00:47.468Z,13.82
2022-10-15T02:01:51.015Z,13.82
2022-10-15T02:02:54.054Z,13.81
2022-10-15T02:03:56.268Z,13.81
2022-10-15T02:04:59.334Z,13.82
2022-10-15T02:06:05.922Z,13.81
2022-10-15T02:07:14.384Z,13.79
2022-10-15T02:08:28.627Z,13.80
2022-10-15T02:09:43.271Z,13.78
2022-10-15T02:10:54.057Z,13.78
2022-10-15T02:12:06.788Z,13.77
2022-10-15T02:13:13.116Z,13.76
2022-10-15T02:14:23.204Z,13.77
2022-10-15T02:15:32.775Z,13.75
2022-10-15T02:16:42.155Z,13.75
2022-10-15T02:17:52.581Z,13.75
2022-10-15T02:19:02.202Z,13.73
2022-10-15T02:20:10.450Z,13.72
2022-10-15T02:21:17.765Z,13.71
2022-10-15T02:22:26.516Z,13.71
2022-10-15T02:23:46.697Z,13.69
2022-10-15T02:24:55.546Z,13.66
2022-10-15T02:26:00.650Z,13.68
2022-10-15T02:27:04.682Z,13.68
2022-10-15T02:28:11.260Z,13.68
2022-10-15T02:29:19.189Z,13.67
2022-10-15T02:30:21.661Z,13.66
2022-10-15T02:31:26.055Z,13.66
2022-10-15T02:32:29.380Z,13.66
2022-10-15T02:33:35.929Z,13.66
2022-10-15T02:34:39.502Z,13.59
2022-10-15T02:35:44.455Z,13.66
2022-10-15T02:36:47.722Z,13.64
2022-10-15T02:37:54.236Z,13.64
2022-10-15T02:38:58.808Z,13.64
2022-10-15T02:40:01.965Z,13.63
2022-10-15T02:41:07.185Z,13.64
2022-10-15T02:42:10.447Z,13.61
2022-10-15T02:43:15.467Z,13.59
2022-10-15T02:44:18.548Z,13.60
2022-10-15T02:45:20.938Z,13.58
2022-10-15T02:46:24.134Z,13.56
2022-10-15T02:47:26.175Z,13.55
2022-10-15T02:48:29.882Z,13.54
2022-10-15T02:49:33.346Z,13.51
2022-10-15T02:50:36.504Z,13.49
2022-10-15T02:51:38.769Z,13.48
2022-10-15T02:52:41.831Z,13.46
2022-10-15T02:53:43.882Z,13.44
2022-10-15T02:54:46.973Z,13.40
2022-10-15T02:55:49.075Z,13.39
2022-10-15T02:56:52.971Z,13.38
2022-10-15T02:57:56.317Z,13.37
2022-10-15T02:58:59.372Z,13.35
2022-10-15T03:00:01.436Z,13.33
2022-10-15T03:01:04.891Z,13.30
2022-10-15T03:02:06.981Z,13.30
2022-10-15T03:03:10.093Z,13.27
2022-10-15T03:04:12.484Z,13.26
2022-10-15T03:05:17.654Z,13.23
2022-10-15T03:06:20.169Z,13.21
2022-10-15T03:07:24.477Z,13.19
2022-10-15T03:08:26.806Z,13.17
2022-10-15T03:09:29.892Z,13.16
2022-10-15T03:10:31.983Z,13.12
2022-10-15T03:11:36.138Z,13.10
2022-10-15T03:12:38.189Z,13.08
2022-10-15T03:13:42.097Z,13.05
2022-10-15T03:14:44.121Z,13.03
2022-10-15T03:15:47.166Z,13.01
2022-10-15T03:16:50.589Z,13.00
2022-10-15T03:17:53.713Z,12.98
2022-10-15T03:18:55.831Z,12.96
2022-10-15T03:19:59.777Z,12.95
2022-10-15T03:21:03.749Z,12.95
2022-10-15T03:22:07.079Z,12.92
2022-10-15T03:23:18.127Z,12.92
2022-10-15T03:24:21.383Z,12.91
2022-10-15T03:25:23.762Z,12.90
2022-10-15T03:26:35.365Z,12.88
2022-10-15T03:27:37.410Z,12.86
2022-10-15T03:28:49.058Z,12.84
2022-10-15T03:30:05.070Z,12.81
2022-10-15T03:31:09.623Z,12.79
2022-10-15T03:32:11.880Z,12.76
2022-10-15T03:33:15.668Z,12.66
2022-10-15T03:34:18.083Z,12.70
2022-10-15T03:35:23.563Z,12.67
2022-10-15T03:36:28.059Z,12.64
2022-10-15T03:37:30.392Z,12.60
2022-10-15T03:38:33.612Z,12.60
2022-10-15T03:39:39.258Z,12.58
2022-10-15T03:40:46.399Z,12.56
2022-10-15T03:41:56.233Z,12.55
2022-10-15T03:43:06.840Z,12.56
2022-10-15T03:44:11.175Z,12.54
2022-10-15T03:45:19.037Z,12.54
2022-10-15T03:46:24.981Z,12.54
2022-10-15T03:47:28.912Z,12.55
2022-10-15T03:48:32.435Z,12.54
2022-10-15T03:49:35.489Z,12.55
2022-10-15T03:50:37.961Z,12.55
2022-10-15T03:51:42.443Z,12.55
2022-10-15T03:52:48.101Z,12.55
2022-10-15T03:53:50.278Z,12.54
2022-10-15T03:54:53.355Z,12.55
2022-10-15T03:55:56.080Z,12.55
2022-10-15T03:57:00.100Z,12.55
2022-10-15T03:58:07.083Z,12.56
2022-10-15T03:59:11.333Z,12.56
2022-10-15T04:00:14.687Z,12.56
2022-10-15T04:01:19.468Z,12.57
2022-10-15T04:02:21.983Z,12.58
2022-10-15T04:03:25.264Z,12.57
2022-10-15T04:04:28.028Z,12.58
2022-10-15T04:05:31.399Z,12.59
2022-10-15T04:06:41.750Z,12.59
2022-10-15T04:07:49.125Z,12.60
2022-10-15T04:08:54.954Z,12.60
2022-10-15T04:10:00.772Z,12.61
2022-10-15T04:11:09.964Z,12.62
2022-10-15T04:12:13.030Z,12.62
2022-10-15T04:13:15.145Z,12.62
2022-10-15T04:14:20.207Z,12.63
2022-10-15T04:15:22.437Z,12.63
2022-10-15T04:16:30.858Z,12.64
2022-10-15T04:17:32.948Z,12.67
2022-10-15T04:18:36.341Z,12.67
2022-10-15T04:19:38.584Z,12.69
2022-10-15T04:20:42.746Z,12.69
2022-10-15T04:21:51.570Z,12.70
2022-10-15T04:23:06.397Z,12.71
2022-10-15T04:24:09.840Z,12.71
2022-10-15T04:25:16.627Z,12.72
2022-10-15T04:26:18.914Z,12.72
2022-10-15T04:27:22.015Z,12.73
2022-10-15T04:28:24.169Z,12.73
2022-10-15T04:29:27.579Z,12.57
2022-10-15T04:30:29.653Z,12.74
2022-10-15T04:31:37.554Z,12.76
2022-10-15T04:32:39.902Z,12.74
2022-10-15T04:33:42.986Z,12.75
2022-10-15T04:34:46.498Z,12.77
2022-10-15T04:35:59.826Z,12.76
2022-10-15T04:37:18.945Z,12.75
2022-10-15T04:38:22.008Z,12.75
2022-10-15T04:39:36.674Z,12.75
2022-10-15T04:40:39.350Z,12.75
2022-10-15T04:41:42.809Z,12.75
2022-10-15T04:42:48.455Z,12.75
2022-10-15T04:43:52.519Z,12.74
2022-10-15T04:44:54.578Z,12.76
2022-10-15T04:45:59.102Z,12.76
2022-10-15T04:47:03.389Z,12.75
2022-10-15T04:48:13.119Z,12.75
2022-10-15T04:49:16.300Z,12.75
2022-10-15T04:50:18.380Z,12.74
2022-10-15T04:51:39.870Z,12.76
2022-10-15T04:52:52.042Z,12.76
2022-10-15T04:53:56.246Z,12.76
2022-10-15T04:54:58.940Z,12.76
2022-10-15T04:56:03.664Z,12.77
2022-10-15T04:57:06.393Z,12.77
2022-10-15T04:58:10.908Z,12.76
2022-10-15T04:59:13.136Z,12.74
2022-10-15T05:00:36.019Z,12.77
2022-10-15T05:01:56.517Z,12.77
2022-10-15T05:02:59.859Z,12.77
2022-10-15T05:04:14.772Z,12.77
2022-10-15T05:05:16.820Z,12.78
2022-10-15T05:06:28.894Z,12.78
2022-10-15T05:07:37.771Z,12.77
2022-10-15T05:08:43.470Z,12.76
2022-10-15T05:09:54.672Z,12.76
2022-10-15T05:11:00.810Z,12.76
2022-10-15T05:12:03.916Z,12.75
2022-10-15T05:13:06.020Z,12.74
2022-10-15T05:14:11.723Z,12.75
2022-10-15T05:15:13.960Z,12.60
2022-10-15T05:16:19.833Z,12.74
2022-10-15T05:17:22.201Z,12.74
2022-10-15T05:18:25.554Z,12.74
2022-10-15T05:19:27.947Z,12.73
2022-10-15T05:20:31.008Z,12.74
2022-10-15T05:21:35.468Z,12.74
2022-10-15T05:22:40.636Z,12.74
2022-10-15T05:23:45.659Z,12.73
2022-10-15T05:24:58.749Z,12.74
2022-10-15T05:26:06.485Z,12.72
2022-10-15T05:27:08.723Z,12.73
2022-10-15T05:28:12.521Z,12.73
2022-10-15T05:29:14.547Z,12.72
2022-10-15T05:30:17.855Z,12.73
2022-10-15T05:31:27.136Z,12.73
2022-10-15T05:32:38.716Z,12.73
2022-10-15T05:33:45.596Z,12.73
2022-10-15T05:34:48.695Z,12.71
2022-10-15T05:35:51.837Z,12.72
2022-10-15T05:36:57.492Z,12.71
2022-10-15T05:37:59.570Z,12.71
2022-10-15T05:39:07.842Z,12.71
2022-10-15T05:40:18.234Z,12.70
2022-10-15T05:41:36.156Z,12.70
2022-10-15T05:42:38.332Z,12.69
2022-10-15T05:43:42.885Z,12.60
2022-10-15T05:44:57.420Z,12.67
2022-10-15T05:46:00.729Z,12.66
2022-10-15T05:47:02.797Z,12.64
2022-10-15T05:48:06.532Z,12.64
2022-10-15T05:49:09.480Z,12.61
2022-10-15T05:50:23.539Z,12.64
2022-10-15T05:51:29.575Z,12.64
2022-10-15T05:52:38.398Z,12.62
2022-10-15T05:53:56.586Z,12.64
2022-10-15T05:55:00.254Z,12.65
2022-10-15T05:56:03.322Z,12.64
2022-10-15T05:57:06.464Z,12.65
2022-10-15T05:58:09.517Z,12.65
2022-10-15T05:59:11.582Z,12.65
2022-10-15T06:00:15.885Z,12.64
2022-10-15T06:01:26.436Z,12.63
2022-10-15T06:02:29.202Z,12.64
2022-10-15T06:03:32.937Z,12.56
2022-10-15T06:04:35.942Z,12.64
2022-10-15T06:05:39.137Z,12.63
2022-10-15T06:06:41.190Z,12.64
2022-10-15T06:07:44.247Z,12.65
2022-10-15T06:08:47.152Z,12.56
2022-10-15T06:09:50.344Z,12.66
2022-10-15T06:10:55.929Z,12.66
2022-10-15T06:11:58.989Z,12.66
2022-10-15T06:13:01.083Z,12.64
2022-10-15T06:14:04.122Z,12.61
2022-10-15T06:15:07.142Z,12.65
2022-10-15T06:16:10.908Z,12.66
2022-10-15T06:17:13.019Z,12.66
2022-10-15T06:18:18.457Z,12.65
2022-10-15T06:19:20.844Z,12.66
2022-10-15T06:20:23.969Z,12.66
2022-10-15T06:21:26.018Z,12.66
2022-10-15T06:22:31.945Z,12.63
2022-10-15T06:23:35.619Z,12.67
2022-10-15T06:24:37.670Z,12.67
2022-10-15T06:25:43.866Z,12.69
2022-10-15T06:26:47.274Z,12.69
2022-10-15T06:27:50.303Z,12.68
2022-10-15T06:28:52.394Z,12.70
2022-10-15T06:29:55.479Z,12.71
2022-10-15T06:30:58.864Z,12.71
2022-10-15T06:32:02.952Z,12.73
2022-10-15T06:33:05.156Z,12.75
2022-10-15T06:34:08.217Z,12.74
2022-10-15T06:35:10.366Z,12.74
2022-10-15T06:36:14.685Z,12.73
2022-10-15T06:37:16.734Z,12.74
2022-10-15T06:38:19.832Z,12.75
2022-10-15T06:39:21.924Z,12.76
2022-10-15T06:40:25.026Z,12.76
2022-10-15T06:41:27.153Z,12.74
2022-10-15T06:42:31.553Z,12.73
2022-10-15T06:43:35.232Z,12.73
2022-10-15T06:44:38.681Z,12.71
2022-10-15T06:45:42.586Z,12.71
2022-10-15T06:46:52.886Z,12.71
2022-10-15T06:47:55.009Z,12.71
2022-10-15T06:48:58.124Z,12.72
2022-10-15T06:50:00.618Z,12.72
2022-10-15T06:51:04.906Z,12.67
2022-10-15T06:52:07.488Z,12.73
2022-10-15T06:53:10.618Z,12.72
2022-10-15T06:54:12.727Z,12.73
2022-10-15T06:55:15.886Z,12.74
2022-10-15T06:56:18.078Z,12.74
2022-10-15T06:57:21.512Z,12.74
2022-10-15T06:58:25.398Z,12.74
2022-10-15T06:59:28.480Z,12.74
2022-10-15T07:00:30.978Z,12.74
2022-10-15T07:01:37.227Z,12.76
2022-10-15T07:02:43.576Z,12.75
2022-10-15T07:03:48.573Z,12.76
2022-10-15T07:04:51.603Z,12.76
2022-10-15T07:05:56.013Z,12.77
2022-10-15T07:06:59.147Z,12.78
2022-10-15T07:08:03.498Z,12.73
2022-10-15T07:09:06.617Z,12.77
2022-10-15T07:10:09.279Z,12.80
2022-10-15T07:11:14.833Z,12.80
2022-10-15T07:12:16.884Z,12.80
2022-10-15T07:13:19.963Z,12.81
2022-10-15T07:14:23.448Z,12.82
2022-10-15T07:15:26.537Z,12.84
2022-10-15T07:16:29.843Z,12.85
2022-10-15T07:17:35.201Z,12.86
2022-10-15T07:18:38.206Z,12.88
2022-10-15T07:19:41.465Z,12.90
2022-10-15T07:20:43.553Z,12.90
2022-10-15T07:21:46.725Z,12.91
2022-10-15T07:22:49.181Z,12.92
2022-10-15T07:23:52.263Z,12.92
2022-10-15T07:24:54.342Z,12.95
2022-10-15T07:25:58.531Z,12.95
2022-10-15T07:27:05.123Z,12.96
2022-10-15T07:28:20.223Z,13.00
2022-10-15T07:29:23.699Z,13.01
2022-10-15T07:30:28.494Z,13.04
2022-10-15T07:31:31.115Z,13.07
2022-10-15T07:32:34.527Z,13.11
2022-10-15T07:33:36.855Z,13.11
2022-10-15T07:34:39.873Z,13.05
2022-10-15T07:35:41.950Z,13.20
2022-10-15T07:36:45.041Z,13.20
2022-10-15T07:37:50.687Z,13.25
2022-10-15T07:38:53.831Z,13.28
2022-10-15T07:39:55.909Z,13.31
2022-10-15T07:41:00.221Z,13.33
2022-10-15T07:42:02.819Z,13.37
2022-10-15T07:43:05.912Z,13.39
2022-10-15T07:44:08.139Z,13.42
2022-10-15T07:45:13.096Z,13.45
2022-10-15T07:46:16.368Z,13.47
2022-10-15T07:47:18.672Z,13.48
2022-10-15T07:48:21.970Z,13.47
2022-10-15T07:49:24.119Z,13.51
2022-10-15T07:50:29.315Z,13.54
2022-10-15T07:51:36.926Z,13.54
2022-10-15T07:52:38.962Z,13.56
2022-10-15T07:53:43.936Z,13.57
2022-10-15T07:54:46.982Z,13.58
2022-10-15T07:55:51.743Z,13.58
2022-10-15T07:56:54.761Z,13.59
2022-10-15T07:57:57.270Z,13.59
2022-10-15T07:59:00.318Z,13.59
2022-10-15T08:00:02.400Z,13.61
2022-10-15T08:01:17.968Z,13.58
2022-10-15T08:02:21.907Z,13.62
2022-10-15T08:03:24.532Z,13.64
2022-10-15T08:04:27.690Z,13.66
2022-10-15T08:05:30.130Z,13.67
2022-10-15T08:06:33.833Z,13.67
2022-10-15T08:07:36.017Z,13.68
2022-10-15T08:08:43.956Z,13.69
2022-10-15T08:10:49.293Z,13.67
2022-10-15T08:11:52.318Z,13.67
2022-10-15T08:12:55.851Z,13.66
2022-10-15T08:13:59.024Z,13.66
2022-10-15T08:15:01.425Z,13.66
2022-10-15T08:16:04.933Z,13.64
2022-10-15T08:17:09.709Z,13.64
2022-10-15T08:18:11.873Z,13.64
2022-10-15T08:19:17.761Z,13.64
2022-10-15T08:20:20.970Z,13.63
2022-10-15T08:21:24.316Z,13.49
2022-10-15T08:22:26.606Z,13.56
2022-10-15T08:23:32.242Z,13.60
2022-10-15T08:24:34.458Z,13.58
2022-10-15T08:25:37.491Z,13.58
2022-10-15T08:26:39.573Z,13.52
2022-10-15T08:27:42.673Z,13.48
2022-10-15T08:28:46.122Z,13.55
2022-10-15T08:29:48.403Z,13.53
2022-10-15T08:30:51.537Z,13.53
2022-10-15T08:31:53.590Z,13.53
2022-10-15T08:33:01.139Z,13.53
2022-10-15T08:34:03.693Z,13.51
2022-10-15T08:35:08.223Z,13.51
2022-10-15T08:36:10.606Z,13.52
2022-10-15T08:38:19.746Z,13.52
2022-10-15T08:39:23.392Z,13.52
2022-10-15T08:40:25.591Z,13.52
2022-10-15T08:41:35.000Z,13.54
2022-10-15T08:42:41.141Z,13.56
2022-10-15T08:43:47.154Z,13.59
2022-10-15T08:44:54.878Z,13.61
2022-10-15T08:46:02.019Z,13.63
2022-10-15T08:47:08.674Z,13.65
2022-10-15T08:48:16.959Z,13.67
2022-10-15T08:49:28.655Z,13.69
2022-10-15T08:50:40.166Z,13.72
2022-10-15T08:51:48.409Z,13.75
2022-10-15T08:52:55.551Z,13.79
2022-10-15T08:54:02.716Z,13.83
2022-10-15T08:55:06.355Z,13.86
2022-10-15T08:56:17.139Z,13.91
2022-10-15T08:57:30.430Z,13.95
2022-10-15T08:58:46.372Z,13.98
2022-10-15T08:59:56.681Z,14.00
2022-10-15T09:01:05.072Z,14.01
2022-10-15T09:02:17.626Z,14.01
2022-10-15T09:03:33.553Z,14.02
2022-10-15T09:04:47.169Z,14.05
2022-10-15T09:05:57.896Z,14.09
2022-10-15T09:07:03.903Z,14.12
2022-10-15T09:08:20.633Z,14.16
2022-10-15T09:09:30.678Z,14.21
2022-10-15T09:10:40.847Z,14.26
2022-10-15T09:11:55.278Z,14.34
2022-10-15T09:13:03.323Z,14.43
2022-10-15T09:14:11.040Z,14.44
2022-10-15T09:15:17.139Z,14.54
2022-10-15T09:16:23.871Z,14.61
2022-10-15T09:17:29.970Z,14.66
2022-10-15T09:18:36.983Z,14.73
2022-10-15T09:19:39.217Z,14.76
2022-10-15T09:20:44.665Z,14.80
2022-10-15T09:21:48.221Z,14.83
2022-10-15T09:22:52.867Z,14.86
2022-10-15T09:23:59.568Z,14.89
2022-10-15T09:25:14.478Z,14.96
2022-10-15T09:26:27.043Z,15.03
2022-10-15T09:27:32.958Z,15.11
2022-10-15T09:28:44.706Z,15.19
2022-10-15T09:29:56.489Z,15.24
2022-10-15T09:30:59.786Z,15.29
2022-10-15T09:32:10.877Z,15.31
2022-10-15T09:33:23.748Z,15.33
2022-10-15T09:34:34.094Z,15.35
2022-10-15T09:35:43.279Z,15.34
2022-10-15T09:36:51.822Z,15.33
2022-10-15T09:38:05.831Z,15.32
2022-10-15T09:39:32.832Z,15.26
2022-10-15T09:40:44.454Z,15.21
2022-10-15T09:41:58.613Z,15.16
2022-10-15T09:43:02.432Z,15.13
2022-10-15T09:44:11.183Z,15.10
2022-10-15T09:45:17.271Z,15.09
2022-10-15T09:46:19.327Z,15.10
2022-10-15T09:47:25.970Z,15.12
2022-10-15T09:48:41.335Z,15.12
2022-10-15T09:49:45.799Z,15.13
2022-10-15T09:50:57.882Z,15.15
2022-10-15T09:52:07.617Z,15.14
2022-10-15T09:53:22.222Z,15.13
2022-10-15T09:54:38.283Z,15.14
2022-10-15T09:55:47.849Z,15.16
2022-10-15T09:56:54.450Z,15.17
2022-10-15T09:58:02.988Z,15.18
2022-10-15T09:59:09.664Z,15.20
2022-10-15T10:00:14.777Z,15.22
2022-10-15T10:01:19.891Z,15.25
2022-10-15T10:02:25.192Z,15.27
2022-10-15T10:03:29.478Z,15.30
2022-10-15T10:04:34.008Z,15.31
2022-10-15T10:05:39.012Z,15.33
2022-10-15T10:06:48.618Z,15.37
2022-10-15T10:07:50.787Z,15.39
2022-10-15T10:08:56.880Z,15.42
2022-10-15T10:10:04.804Z,15.44
2022-10-15T10:11:11.136Z,15.47
2022-10-15T10:12:20.597Z,15.49
2022-10-15T10:13:27.332Z,15.53
2022-10-15T10:14:32.994Z,15.55
2022-10-15T10:15:38.419Z,15.57
2022-10-15T10:17:21.577Z,15.61
2022-10-15T10:18:26.074Z,15.63
2022-10-15T10:19:29.233Z,15.66
2022-10-15T10:20:35.125Z,15.67
2022-10-15T10:36:53.438Z,16.17
2022-10-15T10:37:55.397Z,16.22
2022-10-15T10:39:03.089Z,16.25
2022-10-15T10:40:19.680Z,16.28
2022-10-15T10:41:22.684Z,16.33
2022-10-15T10:42:33.164Z,16.38
2022-10-15T10:43:41.272Z,16.42
2022-10-15T10:44:46.493Z,16.47
2022-10-15T10:45:58.052Z,16.45
2022-10-15T10:47:12.902Z,16.53
2022-10-15T10:48:21.191Z,16.57
2022-10-15T10:49:32.773Z,16.60
2022-10-15T10:50:40.617Z,16.65
2022-10-15T10:51:50.225Z,16.66
2022-10-15T10:52:53.238Z,16.70
2022-10-15T10:53:58.646Z,16.71
2022-10-15T10:55:05.225Z,16.75
2022-10-15T10:56:10.570Z,16.79
2022-10-15T10:57:19.755Z,16.81
2022-10-15T10:58:27.028Z,16.86
2022-10-15T10:59:35.640Z,16.91
2022-10-15T11:00:40.966Z,16.96
2022-10-15T11:01:44.025Z,17.01
2022-10-15T11:02:47.200Z,17.08
2022-10-15T11:03:51.405Z,17.14
2022-10-15T11:04:53.524Z,17.21
2022-10-15T11:06:07.864Z,17.27
2022-10-15T11:07:18.999Z,17.33
2022-10-15T11:08:31.874Z,17.38
2022-10-15T11:09:55.259Z,17.42
2022-10-15T11:11:07.636Z,17.45
2022-10-15T11:12:31.815Z,17.46
2022-10-15T11:13:50.202Z,17.48
2022-10-15T11:14:58.816Z,17.43
2022-10-15T11:16:05.369Z,17.43
2022-10-15T11:17:17.877Z,17.43
2022-10-15T11:18:34.755Z,17.42
2022-10-15T11:21:17.628Z,17.40
2022-10-15T11:22:39.889Z,17.38
2022-10-15T11:24:04.885Z,17.39
2022-10-15T11:25:22.083Z,17.41
2022-10-15T11:26:51.981Z,17.44
2022-10-15T11:28:24.784Z,17.50
2022-10-15T11:29:36.370Z,17.53
2022-10-15T11:30:48.937Z,17.58
2022-10-15T11:32:14.672Z,17.61
2022-10-15T11:33:36.689Z,17.65
2022-10-15T11:34:53.633Z,17.69
2022-10-15T11:36:11.729Z,17.72
2022-10-15T11:37:29.238Z,17.76
2022-10-15T11:38:40.916Z,17.78
2022-10-15T11:39:55.200Z,17.81
2022-10-15T11:41:16.603Z,17.84
2022-10-15T11:42:24.968Z,17.82
2022-10-15T11:43:45.057Z,17.82
2022-10-15T11:45:18.149Z,17.78
2022-10-15T11:46:28.147Z,17.75
2022-10-15T11:47:40.979Z,17.73
2022-10-15T11:48:55.286Z,17.70
2022-10-15T11:50:14.461Z,17.69
2022-10-15T11:51:27.615Z,17.69
2022-10-15T11:52:48.732Z,17.68
2022-10-15T11:54:21.693Z,17.64
2022-10-15T11:55:30.163Z,17.60
2022-10-15T11:56:38.828Z,17.56
2022-10-15T11:57:44.435Z,17.55
2022-10-15T11:58:51.508Z,17.48
2022-10-15T11:59:58.404Z,17.55
2022-10-15T12:01:06.742Z,17.56
2022-10-15T12:02:15.001Z,17.61
2022-10-15T12:03:21.309Z,17.63
2022-10-15T12:04:32.715Z,17.67
2022-10-15T12:05:40.075Z,17.69
2022-10-15T12:06:48.753Z,17.71
2022-10-15T12:07:50.652Z,17.73
2022-10-15T12:09:00.229Z,17.74
2022-10-15T12:10:14.105Z,17.76
2022-10-15T12:11:28.250Z,17.78
2022-10-15T12:12:38.920Z,17.78
2022-10-15T12:13:45.221Z,17.79
2022-10-15T12:14:52.247Z,17.78
2022-10-15T12:16:03.597Z,17.77
2022-10-15T12:17:16.671Z,17.76
2022-10-15T12:18:27.268Z,17.75
2022-10-15T12:19:37.288Z,17.73
2022-10-15T12:20:41.765Z,17.72
2022-10-15T12:22:00.920Z,17.70
2022-10-15T12:23:04.713Z,17.68
2022-10-15T12:24:47.708Z,17.65
2022-10-15T12:25:51.963Z,17.65
2022-10-15T12:26:54.007Z,17.64
2022-10-15T12:28:01.651Z,17.64
2022-10-15T12:29:07.030Z,17.63
2022-10-15T12:30:27.543Z,17.61
2022-10-15T12:31:49.268Z,17.60
2022-10-15T12:32:52.048Z,17.59
2022-10-15T12:33:56.581Z,17.58
2022-10-15T12:35:00.891Z,17.55
2022-10-15T12:36:09.844Z,17.56
2022-10-15T12:37:18.215Z,17.55
2022-10-15T12:38:26.523Z,17.53
2022-10-15T12:41:05.338Z,17.50
2022-10-15T12:42:21.879Z,17.47
2022-10-15T12:43:25.186Z,17.45
2022-10-15T12:44:30.428Z,17.42
2022-10-15T12:45:40.004Z,17.46
2022-10-15T12:46:46.287Z,17.45
2022-10-15T12:47:49.371Z,17.46
2022-10-15T12:48:56.094Z,17.46
2022-10-15T12:50:02.786Z,17.47
2022-10-15T12:51:39.407Z,17.48
2022-10-15T12:53:02.438Z,17.49
2022-10-15T12:54:33.633Z,17.54
2022-10-15T12:55:39.043Z,17.59
2022-10-15T12:56:42.393Z,17.63
2022-10-15T12:58:00.069Z,17.65
2022-10-15T12:59:02.127Z,17.65
2022-10-15T13:00:29.716Z,17.64
2022-10-15T13:01:52.115Z,17.61
2022-10-15T13:02:55.978Z,17.61
2022-10-15T13:04:00.440Z,17.59
2022-10-15T13:05:04.460Z,17.58
2022-10-15T13:06:35.083Z,17.58
2022-10-15T13:07:40.853Z,17.57
2022-10-15T13:08:46.334Z,17.56
2022-10-15T13:09:49.503Z,17.56
2022-10-15T13:10:54.906Z,17.55
2022-10-15T13:12:01.438Z,17.54
2022-10-15T13:13:05.704Z,17.51
2022-10-15T13:14:22.164Z,17.52
2022-10-15T13:15:26.401Z,17.53
2022-10-15T13:16:30.575Z,17.53
2022-10-15T13:17:32.729Z,17.54
2022-10-15T13:18:36.269Z,17.55
2022-10-15T13:19:40.978Z,17.55
2022-10-15T13:20:47.586Z,17.56
2022-10-15T13:21:51.943Z,17.55
2022-10-15T13:23:01.915Z,17.54
2022-10-15T13:24:12.465Z,17.52
2022-10-15T13:25:16.445Z,17.49
2022-10-15T13:26:22.645Z,17.48
2022-10-15T13:27:29.025Z,17.48
2022-10-15T13:28:33.704Z,17.49
2022-10-15T13:29:36.690Z,17.51
2022-10-15T13:30:48.590Z,17.53
2022-10-15T13:31:53.220Z,17.55
2022-10-15T13:32:56.821Z,17.56
2022-10-15T13:34:14.389Z,17.56
2022-10-15T13:35:22.032Z,17.56
2022-10-15T13:36:26.506Z,17.54
2022-10-15T13:37:33.408Z,17.53
2022-10-15T13:38:38.741Z,17.51
2022-10-15T13:39:42.546Z,17.50
2022-10-15T13:40:48.524Z,17.51
2022-10-15T13:41:51.544Z,17.52
2022-10-15T13:43:02.298Z,17.50
2022-10-15T13:44:05.631Z,17.51
2022-10-15T13:45:17.911Z,17.49
2022-10-15T13:46:20.904Z,17.48
2022-10-15T13:47:27.053Z,17.48
2022-10-15T13:48:31.120Z,17.46
2022-10-15T13:49:34.063Z,17.45
2022-10-15T13:50:36.693Z,17.45
2022-10-15T13:51:41.949Z,17.46
2022-10-15T13:52:48.113Z,17.48
2022-10-15T13:53:51.374Z,17.50
2022-10-15T13:54:53.347Z,17.53
2022-10-15T13:55:58.296Z,17.58
2022-10-15T13:57:02.541Z,17.63
2022-10-15T13:58:17.453Z,17.68
2022-10-15T13:59:21.413Z,17.74
2022-10-15T14:00:27.002Z,17.79
2022-10-15T14:01:31.739Z,17.82
2022-10-15T14:02:33.700Z,17.86
2022-10-15T14:03:39.268Z,17.91
2022-10-15T14:04:41.333Z,17.92
2022-10-15T14:05:44.841Z,17.94
2022-10-15T14:06:56.992Z,17.98
2022-10-15T14:08:00.283Z,18.00
2022-10-15T14:09:15.035Z,17.99
2022-10-15T14:10:17.104Z,17.97
2022-10-15T14:11:20.637Z,17.95
2022-10-15T14:12:23.604Z,17.91
2022-10-15T14:13:28.947Z,17.88
2022-10-15T14:14:34.738Z,17.84
2022-10-15T14:15:46.219Z,17.81
2022-10-15T14:16:49.559Z,17.77
2022-10-15T14:17:52.083Z,17.76
2022-10-15T14:18:58.467Z,17.75
2022-10-15T14:20:25.818Z,17.74
2022-10-15T14:21:29.135Z,17.73
2022-10-15T14:22:31.688Z,17.73
2022-10-15T14:23:34.684Z,17.73
2022-10-15T14:24:40.194Z,17.68
2022-10-15T14:25:42.229Z,17.66
2022-10-15T14:26:46.309Z,17.62
2022-10-15T14:27:50.484Z,17.56
2022-10-15T14:28:56.500Z,17.52
2022-10-15T14:30:01.419Z,17.48
2022-10-15T14:31:05.334Z,17.44
2022-10-15T14:32:21.858Z,17.41
2022-10-15T14:33:41.691Z,17.37
2022-10-15T14:34:43.694Z,17.33
2022-10-15T14:35:46.669Z,17.31
2022-10-15T14:36:48.592Z,17.28
2022-10-15T14:38:01.138Z,17.27
2022-10-15T14:39:28.145Z,17.19
2022-10-15T14:40:30.511Z,17.27
2022-10-15T14:41:34.537Z,17.29
2022-10-15T14:42:39.591Z,17.31
2022-10-15T14:43:42.496Z,17.38